Time;durP1;ratioP1;P1;durP2;ratioP2;P2;SDS_P1;SDS_P2;PMS_P1;PMS_P2;Temp;Humidity;BMP_temperature;BMP_pressure;BME280_temperature;BME280_humidity;BME280_pressure;Samples;Min_cycle;Max_cycle;Signal;HPM_P1;HPM_P2
2024/04/10 05:20:04;;;;;;;;;;;;;;;;;;4475876;25;19927;-51
2024/04/10 05:22:30;;;;;;;;;;;;;;;;;;5275946;27;19930;-50
2024/04/10 05:24:56;;;;;;;;;;;;;;;;;;5276086;27;19931;-48
2024/04/10 05:27:22;;;;;;;;;;;;;;;;;;5275764;27;20396;-47
2024/04/10 05:29:48;;;;;;;;;;;;;;;;;;5276079;27;19931;-48
2024/04/10 05:32:14;;;;;;;;;;;;;;;;;;5275981;27;19941;-51
2024/04/10 05:34:40;;;;;;;;;;;;;;;;;;5276632;27;19945;-50
2024/04/10 05:37:05;;;;;;;;;;;;;;;;;;5276108;27;19938;-51
2024/04/10 05:39:33;;;;;;;;;;;;;;;;;;5275763;27;19937;-50
2024/04/10 05:42:05;;;;;;;;;;;;;;;;;;5245972;27;20373;-51
2024/04/10 05:44:30;;;;;;;;;;;;;;;;;;5275534;27;19937;-51
2024/04/10 05:46:56;;;;;;;;;;;;;;;;;;5275744;27;19931;-50
2024/04/10 05:49:22;;;;;;;;;;;;;;;;;;5275704;27;19939;-52
2024/04/10 05:51:48;;;;;;;;;;;;;;;;;;5275942;27;19931;-50
2024/04/10 05:54:14;;;;;;;;;;;;;;;;;;5275730;27;19931;-50
2024/04/10 05:56:40;;;;;;;;;;;;;;;;;;5276238;27;20282;-50
2024/04/10 05:59:06;;;;;;;;;;;;;;;;;;5275757;27;19931;-51
2024/04/10 06:01:32;;;;;;;;;;;;;;;;;;5275734;27;19938;-51
2024/04/10 06:03:58;;;;;;;;;;;;;;;;;;5275478;27;19959;-51
2024/04/10 06:06:24;;;;;;;;;;;;;;;;;;5275573;27;19935;-49
2024/04/10 06:08:51;;;;;;;;;;;;;;;;;;5275213;27;19931;-48
2024/04/10 06:11:17;;;;;;;;;;;;;;;;;;5275615;27;19931;-49
2024/04/10 06:13:51;;;;;;;;;;;;;;;;;;5275621;27;19942;-49
2024/04/10 06:16:19;;;;;;;;;;;;;;;;;;5275679;27;19931;-48
2024/04/10 06:18:44;;;;;;;;;;;;;;;;;;5275035;27;20001;-50
2024/04/10 06:21:10;;;;;;;;;;;;;;;;;;5275904;27;20313;-47
2024/04/10 06:23:36;;;;;;;;;;;;;;;;;;5275358;27;19931;-49
2024/04/10 06:26:02;;;;;;;;;;;;;;;;;;5275196;27;19931;-48
2024/04/10 06:28:28;;;;;;;;;;;;;;;;;;5274831;27;19931;-50
2024/04/10 06:30:54;;;;;;;;;;;;;;;;;;5275316;27;19982;-51
2024/04/10 06:33:20;;;;;;;;;;;;;;;;;;5275372;27;19931;-49
2024/04/10 06:35:46;;;;;;;;;;;;;;;;;;5275075;27;20281;-50
2024/04/10 06:38:12;;;;;;;;;;;;;;;;;;5275361;27;19943;-49
2024/04/10 06:40:37;;;;;;;;;;;;;;;;;;5275100;27;20395;-47
2024/04/10 06:43:03;;;;;;;;;;;;;;;;;;5274872;27;19931;-51
2024/04/10 06:45:29;;;;;;;;;;;;;;;;;;5274926;27;19931;-51
2024/04/10 06:47:55;;;;;;;;;;;;;;;;;;5274772;27;19938;-47
2024/04/10 06:50:21;;;;;;;;;;;;;;;;;;5274912;27;20303;-47
2024/04/10 06:52:47;;;;;;;;;;;;;;;;;;5274863;27;19932;-48
2024/04/10 06:55:13;;;;;;;;;;;;;;;;;;5275183;27;19942;-50
2024/04/10 06:57:38;;;;;;;;;;;;;;;;;;5276754;27;20002;-50
2024/04/10 07:00:12;;;;;;;;;;;;;;;;;;5277875;27;20405;-49
2024/04/10 07:02:38;;;;;;;;;;;;;;;;;;5278245;27;19959;-50
2024/04/10 07:05:04;;;;;;;;;;;;;;;;;;5278474;27;19935;-46
2024/04/10 07:07:30;;;;;;;;;;;;;;;;;;5277892;27;20522;-51
2024/04/10 07:09:56;;;;;;;;;;;;;;;;;;5277866;27;20276;-51
2024/04/10 07:12:22;;;;;;;;;;;;;;;;;;5277921;27;19938;-49
2024/04/10 07:14:48;;;;;;;;;;;;;;;;;;5277823;27;19938;-50
2024/04/10 07:17:14;;;;;;;;;;;;;;;;;;5276725;27;19959;-52
2024/04/10 07:19:40;;;;;;;;;;;;;;;;;;5277701;27;19958;-49
2024/04/10 07:22:06;;;;;;;;;;;;;;;;;;5277935;27;19938;-49
2024/04/10 07:24:32;;;;;;;;;;;;;;;;;;5277652;27;19938;-49
2024/04/10 07:26:57;;;;;;;;;;;;;;;;;;5275107;27;20012;-50
2024/04/10 07:29:23;;;;;;;;;;;;;;;;;;5247604;27;20023;-52
2024/04/10 07:31:49;;;;;;;;;;;;;;;;;;5276305;27;19941;-50
2024/04/10 07:34:17;;;;;;;;;;;;;;;;;;5277779;27;19931;-50
2024/04/10 07:36:43;;;;;;;;;;;;;;;;;;5277142;27;19935;-52
2024/04/10 07:39:09;;;;;;;;;;;;;;;;;;5274659;27;20321;-50
2024/04/10 07:41:35;;;;;;;;;;;;;;;;;;5277811;27;19935;-47
2024/04/10 07:44:02;;;;;;;;;;;;;;;;;;5277584;27;19959;-49
2024/04/10 07:46:28;;;;;;;;;;;;;;;;;;5277736;27;19938;-49
2024/04/10 07:48:57;;;;;;;;;;;;;;;;;;5274606;27;19931;-49
2024/04/10 07:51:23;;;;;;;;;;;;;;;;;;5275969;27;20002;-48
2024/04/10 07:53:49;;;;;;;;;;;;;;;;;;5277601;27;19943;-50
2024/04/10 07:56:15;;;;;;;;;;;;;;;;;;5277881;27;19931;-51
2024/04/10 07:58:41;;;;;;;;;;;;;;;;;;5277605;27;19931;-50
2024/04/10 08:01:07;;;;;;;;;;;;;;;;;;5274742;27;20353;-51
2024/04/10 08:03:33;;;;;;;;;;;;;;;;;;5277151;27;19938;-50
2024/04/10 08:05:59;;;;;;;;;;;;;;;;;;5277017;27;19937;-49
2024/04/10 08:08:25;;;;;;;;;;;;;;;;;;5274868;27;19931;-48
2024/04/10 08:10:50;;;;;;;;;;;;;;;;;;5277258;27;19939;-50
2024/04/10 08:13:16;;;;;;;;;;;;;;;;;;5276276;27;19938;-49
2024/04/10 08:15:45;;;;;;;;;;;;;;;;;;5277009;27;19938;-50
2024/04/10 08:18:11;;;;;;;;;;;;;;;;;;5265519;27;19939;-50
2024/04/10 08:20:37;;;;;;;;;;;;;;;;;;5274471;27;20005;-51
2024/04/10 08:23:03;;;;;;;;;;;;;;;;;;5276597;27;19931;-50
2024/04/10 08:25:28;;;;;;;;;;;;;;;;;;5274766;27;19931;-51
2024/04/10 08:27:56;;;;;;;;;;;;;;;;;;5274203;27;19931;-48
2024/04/10 08:30:22;;;;;;;;;;;;;;;;;;5276422;27;19963;-51
2024/04/10 08:32:48;;;;;;;;;;;;;;;;;;5277270;27;19931;-51
2024/04/10 08:35:14;;;;;;;;;;;;;;;;;;5274243;27;19938;-46
2024/04/10 08:37:40;;;;;;;;;;;;;;;;;;5253257;27;20002;-48
2024/04/10 08:40:06;;;;;;;;;;;;;;;;;;5256475;27;19931;-49
2024/04/10 08:42:32;;;;;;;;;;;;;;;;;;5276667;27;19931;-51
2024/04/10 08:44:58;;;;;;;;;;;;;;;;;;5276257;27;20001;-48
2024/04/10 08:47:24;;;;;;;;;;;;;;;;;;5275086;27;19938;-50
2024/04/10 08:49:50;;;;;;;;;;;;;;;;;;5276848;27;19938;-49
2024/04/10 08:52:16;;;;;;;;;;;;;;;;;;5276266;27;20305;-50
2024/04/10 08:54:41;;;;;;;;;;;;;;;;;;5276385;27;19946;-51
2024/04/10 08:57:07;;;;;;;;;;;;;;;;;;5276301;27;19931;-51
2024/04/10 08:59:33;;;;;;;;;;;;;;;;;;5246380;27;19931;-50
2024/04/10 09:02:01;;;;;;;;;;;;;;;;;;5276250;27;19934;-51
2024/04/10 09:04:27;;;;;;;;;;;;;;;;;;5276304;27;19931;-50
2024/04/10 09:06:53;;;;;;;;;;;;;;;;;;5276289;27;19931;-46
2024/04/10 09:09:19;;;;;;;;;;;;;;;;;;5276403;27;19931;-49
2024/04/10 09:11:45;;;;;;;;;;;;;;;;;;5286026;27;19931;-49
2024/04/10 09:14:11;;;;;;;;;;;;;;;;;;5285535;27;19935;-51
2024/04/10 09:16:37;;;;;;;;;;;;;;;;;;5270571;27;20280;-48
2024/04/10 09:19:03;;;;;;;;;;;;;;;;;;5275700;27;19942;-50
2024/04/10 09:21:29;;;;;;;;;;;;;;;;;;5275861;27;20373;-50
2024/04/10 09:23:55;;;;;;;;;;;;;;;;;;5276140;27;19931;-51
2024/04/10 09:26:21;;;;;;;;;;;;;;;;;;5276705;27;19942;-50
2024/04/10 09:28:47;;;;;;;;;;;;;;;;;;5273525;27;19931;-50
2024/04/10 09:31:12;;;;;;;;;;;;;;;;;;5275575;27;20470;-47
2024/04/10 09:33:38;;;;;;;;;;;;;;;;;;5274375;27;19932;-49
2024/04/10 09:36:04;;;;;;;;;;;;;;;;;;5275637;27;19931;-50
2024/04/10 09:38:30;;;;;;;;;;;;;;;;;;5275642;27;19931;-51
2024/04/10 09:40:56;;;;;;;;;;;;;;;;;;5275850;27;19931;-52
2024/04/10 09:43:22;;;;;;;;;;;;;;;;;;5276239;27;19938;-50
2024/04/10 09:45:48;;;;;;;;;;;;;;;;;;5273853;27;19931;-50
2024/04/10 09:48:14;;;;;;;;;;;;;;;;;;5275620;27;19935;-50
2024/04/10 09:50:40;;;;;;;;;;;;;;;;;;5275832;27;19935;-48
2024/04/10 09:53:06;;;;;;;;;;;;;;;;;;5275624;27;19939;-51
2024/04/10 09:55:33;;;;;;;;;;;;;;;;;;5275545;27;19942;-49
2024/04/10 09:57:59;;;;;;;;;;;;;;;;;;5275412;27;19935;-50
2024/04/10 10:00:25;;;;;;;;;;;;;;;;;;5275600;27;20197;-51
2024/04/10 10:02:51;;;;;;;;;;;;;;;;;;5271292;27;19931;-49
2024/04/10 10:05:17;;;;;;;;;;;;;;;;;;5270635;27;20309;-50
2024/04/10 10:07:43;;;;;;;;;;;;;;;;;;5275568;27;20005;-52
2024/04/10 10:10:10;;;;;;;;;;;;;;;;;;5287574;27;19931;-51
2024/04/10 10:12:35;;;;;;;;;;;;;;;;;;5308328;27;19938;-47
2024/04/10 10:15:01;;;;;;;;;;;;;;;;;;5272692;27;19931;-47
2024/04/10 10:17:27;;;;;;;;;;;;;;;;;;5275012;27;20294;-50
2024/04/10 10:19:53;;;;;;;;;;;;;;;;;;5275800;27;19931;-47
2024/04/10 10:22:19;;;;;;;;;;;;;;;;;;5269636;27;20369;-50
2024/04/10 10:24:45;;;;;;;;;;;;;;;;;;5245155;27;20518;-50
2024/04/10 10:27:11;;;;;;;;;;;;;;;;;;5274840;27;19943;-51
2024/04/10 10:29:37;;;;;;;;;;;;;;;;;;5274801;27;20353;-52
2024/04/10 10:32:02;;;;;;;;;;;;;;;;;;5272602;27;19931;-52
2024/04/10 10:34:28;;;;;;;;;;;;;;;;;;5274827;27;20278;-48
2024/04/10 10:36:54;;;;;;;;;;;;;;;;;;5274284;27;20010;-51
2024/04/10 10:39:20;;;;;;;;;;;;;;;;;;5273539;27;19931;-51
2024/04/10 10:41:46;;;;;;;;;;;;;;;;;;5274924;27;19959;-50
2024/04/10 10:44:12;;;;;;;;;;;;;;;;;;5275254;27;19931;-49
2024/04/10 10:46:38;;;;;;;;;;;;;;;;;;5274234;27;19938;-50
2024/04/10 10:49:04;;;;;;;;;;;;;;;;;;5275037;27;19950;-51
2024/04/10 10:51:30;;;;;;;;;;;;;;;;;;5273683;27;19932;-51
2024/04/10 10:53:56;;;;;;;;;;;;;;;;;;5275583;27;19943;-52
2024/04/10 10:56:22;;;;;;;;;;;;;;;;;;5274018;27;19931;-50
2024/04/10 10:58:48;;;;;;;;;;;;;;;;;;5274844;27;19931;-50
2024/04/10 11:01:14;;;;;;;;;;;;;;;;;;5274942;27;20336;-52
2024/04/10 11:03:40;;;;;;;;;;;;;;;;;;5273684;27;19931;-50
2024/04/10 11:06:05;;;;;;;;;;;;;;;;;;5275005;27;19931;-49
2024/04/10 11:08:31;;;;;;;;;;;;;;;;;;5274592;27;19931;-50
2024/04/10 11:10:58;;;;;;;;;;;;;;;;;;5275335;27;20315;-51
2024/04/10 11:13:24;;;;;;;;;;;;;;;;;;5275046;27;19931;-52
2024/04/10 11:15:49;;;;;;;;;;;;;;;;;;5273536;27;19938;-48
2024/04/10 11:18:16;;;;;;;;;;;;;;;;;;5271607;27;19931;-52
2024/04/10 11:20:42;;;;;;;;;;;;;;;;;;5271837;27;19931;-51
2024/04/10 11:23:08;;;;;;;;;;;;;;;;;;5274549;27;19931;-49
2024/04/10 11:25:35;;;;;;;;;;;;;;;;;;5274486;27;19998;-51
2024/04/10 11:28:01;;;;;;;;;;;;;;;;;;5274235;27;19937;-51
2024/04/10 11:30:27;;;;;;;;;;;;;;;;;;5274619;27;19931;-51
2024/04/10 11:32:52;;;;;;;;;;;;;;;;;;5274071;27;19937;-52
2024/04/10 11:35:18;;;;;;;;;;;;;;;;;;5274132;27;20022;-51
2024/04/10 11:37:45;;;;;;;;;;;;;;;;;;5273683;27;19958;-50
2024/04/10 11:40:14;;;;;;;;;;;;;;;;;;5274206;27;19931;-50
2024/04/10 11:42:40;;;;;;;;;;;;;;;;;;5274283;27;19943;-49
2024/04/10 11:45:07;;;;;;;;;;;;;;;;;;5277559;27;20670;-51
2024/04/10 11:47:33;;;;;;;;;;;;;;;;;;5277198;27;19931;-51
2024/04/10 11:49:59;;;;;;;;;;;;;;;;;;5277919;27;20395;-53
2024/04/10 11:52:24;;;;;;;;;;;;;;;;;;5277409;27;19931;-52
2024/04/10 11:54:50;;;;;;;;;;;;;;;;;;5277409;27;19938;-48
2024/04/10 11:57:16;;;;;;;;;;;;;;;;;;5277351;27;19938;-51
2024/04/10 11:59:42;;;;;;;;;;;;;;;;;;5277182;27;19931;-50
2024/04/10 12:02:08;;;;;;;;;;;;;;;;;;5277106;27;20374;-50
2024/04/10 12:04:34;;;;;;;;;;;;;;;;;;5276916;27;19942;-49
2024/04/10 12:07:00;;;;;;;;;;;;;;;;;;5277762;27;19931;-51
2024/04/10 12:09:26;;;;;;;;;;;;;;;;;;5276921;27;19938;-53
2024/04/10 12:11:52;;;;;;;;;;;;;;;;;;5277057;27;19939;-51
2024/04/10 12:14:18;;;;;;;;;;;;;;;;;;5276988;27;19946;-51
2024/04/10 12:16:45;;;;;;;;;;;;;;;;;;5276947;27;20009;-51
2024/04/10 12:19:10;;;;;;;;;;;;;;;;;;5276590;27;19931;-51
2024/04/10 12:21:37;;;;;;;;;;;;;;;;;;5276812;27;19938;-50
2024/04/10 12:24:03;;;;;;;;;;;;;;;;;;5276991;27;19939;-52
2024/04/10 12:26:33;;;;;;;;;;;;;;;;;;5277432;27;20277;-51
2024/04/10 12:28:59;;;;;;;;;;;;;;;;;;5276755;27;19959;-52
2024/04/10 12:31:25;;;;;;;;;;;;;;;;;;5276777;27;19931;-52
2024/04/10 12:33:51;;;;;;;;;;;;;;;;;;5276708;27;20031;-51
2024/04/10 12:39:02;;;;;;;;;;;;;;;;;;5276970;27;20324;-48
2024/04/10 12:41:28;;;;;;;;;;;;;;;;;;5276790;27;19931;-49
2024/04/10 12:43:55;;;;;;;;;;;;;;;;;;5276623;27;19939;-51
2024/04/10 12:46:27;;;;;;;;;;;;;;;;;;5276725;27;19938;-51
2024/04/10 12:48:52;;;;;;;;;;;;;;;;;;5276298;27;19931;-52
2024/04/10 12:51:18;;;;;;;;;;;;;;;;;;5276629;27;20400;-50
2024/04/10 12:53:44;;;;;;;;;;;;;;;;;;5276597;27;19938;-51
2024/04/10 12:56:12;;;;;;;;;;;;;;;;;;5275616;27;19998;-51
2024/04/10 12:58:38;;;;;;;;;;;;;;;;;;5276226;27;20050;-50
2024/04/10 13:01:03;;;;;;;;;;;;;;;;;;5276864;27;19964;-51
2024/04/10 13:03:31;;;;;;;;;;;;;;;;;;5276781;27;19938;-51
2024/04/10 13:05:58;;;;;;;;;;;;;;;;;;5276366;27;19931;-51
2024/04/10 13:08:24;;;;;;;;;;;;;;;;;;5276191;27;19967;-49
2024/04/10 13:10:49;;;;;;;;;;;;;;;;;;5276477;27;19931;-50
2024/04/10 13:13:15;;;;;;;;;;;;;;;;;;5276467;27;19931;-50
2024/04/10 13:15:41;;;;;;;;;;;;;;;;;;5276197;27;19939;-49
2024/04/10 13:18:07;;;;;;;;;;;;;;;;;;5276373;27;19931;-50
2024/04/10 13:20:33;;;;;;;;;;;;;;;;;;5246611;27;20325;-53
2024/04/10 13:22:59;;;;;;;;;;;;;;;;;;5276000;27;19935;-51
2024/04/10 13:25:25;;;;;;;;;;;;;;;;;;5275922;27;20373;-52
2024/04/10 13:27:51;;;;;;;;;;;;;;;;;;5275789;27;19935;-52
2024/04/10 13:30:17;;;;;;;;;;;;;;;;;;5276015;27;19998;-51
2024/04/10 13:32:43;;;;;;;;;;;;;;;;;;5275794;27;19943;-51
2024/04/10 13:35:09;;;;;;;;;;;;;;;;;;5275943;27;20274;-52
2024/04/10 13:37:35;;;;;;;;;;;;;;;;;;5276401;27;19938;-50
2024/04/10 13:40:00;;;;;;;;;;;;;;;;;;5275610;27;19935;-50
2024/04/10 13:42:26;;;;;;;;;;;;;;;;;;5275819;27;19942;-52
2024/04/10 13:44:52;;;;;;;;;;;;;;;;;;5275785;27;19937;-52
2024/04/10 13:47:18;;;;;;;;;;;;;;;;;;5276129;27;19943;-49
2024/04/10 13:49:44;;;;;;;;;;;;;;;;;;5275605;27;20385;-52
2024/04/10 13:52:10;;;;;;;;;;;;;;;;;;5275929;27;19943;-52
2024/04/10 13:54:36;;;;;;;;;;;;;;;;;;5275707;27;20281;-49
2024/04/10 13:57:02;;;;;;;;;;;;;;;;;;5275305;27;19931;-53
2024/04/10 13:59:28;;;;;;;;;;;;;;;;;;5273154;27;19931;-52
2024/04/10 14:01:53;;;;;;;;;;;;;;;;;;5272383;27;19971;-51
2024/04/10 14:04:19;;;;;;;;;;;;;;;;;;5268457;27;19931;-52
2024/04/10 14:06:45;;;;;;;;;;;;;;;;;;5273949;27;19931;-53
2024/04/10 14:09:11;;;;;;;;;;;;;;;;;;5275137;27;20378;-52
2024/04/10 14:11:37;;;;;;;;;;;;;;;;;;5275747;27;20005;-52
2024/04/10 14:14:03;;;;;;;;;;;;;;;;;;5275522;27;19931;-52
2024/04/10 14:16:29;;;;;;;;;;;;;;;;;;5275533;27;19943;-51
2024/04/10 14:18:55;;;;;;;;;;;;;;;;;;5251897;27;19931;-52
2024/04/10 14:21:21;;;;;;;;;;;;;;;;;;5252789;27;19938;-52
2024/04/10 14:23:47;;;;;;;;;;;;;;;;;;5275206;27;20272;-50
2024/04/10 14:26:13;;;;;;;;;;;;;;;;;;5274243;27;19931;-52
2024/04/10 14:28:39;;;;;;;;;;;;;;;;;;5275292;27;19967;-51
2024/04/10 14:31:05;;;;;;;;;;;;;;;;;;5272720;27;20535;-51
2024/04/10 14:33:31;;;;;;;;;;;;;;;;;;5271742;27;19931;-52
2024/04/10 14:35:57;;;;;;;;;;;;;;;;;;5271092;27;20320;-50
2024/04/10 14:38:24;;;;;;;;;;;;;;;;;;5274821;27;19943;-52
2024/04/10 14:40:50;;;;;;;;;;;;;;;;;;5272846;27;19931;-52
2024/04/10 14:43:15;;;;;;;;;;;;;;;;;;5272966;27;19931;-53
2024/04/10 14:45:41;;;;;;;;;;;;;;;;;;5274724;27;20447;-52
2024/04/10 14:48:07;;;;;;;;;;;;;;;;;;5273292;27;19946;-53
2024/04/10 14:50:33;;;;;;;;;;;;;;;;;;5274700;27;19967;-51
2024/04/10 14:52:59;;;;;;;;;;;;;;;;;;5273264;27;19939;-53
2024/04/10 14:55:25;;;;;;;;;;;;;;;;;;5273509;27;19939;-51
2024/04/10 14:57:51;;;;;;;;;;;;;;;;;;5274497;27;19942;-52
2024/04/10 15:00:17;;;;;;;;;;;;;;;;;;5271870;27;19943;-51
2024/04/10 15:02:44;;;;;;;;;;;;;;;;;;5264016;27;19931;-51
2024/04/10 15:05:10;;;;;;;;;;;;;;;;;;5274342;27;19931;-50
2024/04/10 15:07:36;;;;;;;;;;;;;;;;;;5270768;27;20307;-50
2024/04/10 15:10:03;;;;;;;;;;;;;;;;;;5273568;27;20342;-53
2024/04/10 15:12:29;;;;;;;;;;;;;;;;;;5270757;27;19935;-53
2024/04/10 15:14:55;;;;;;;;;;;;;;;;;;5272059;27;19986;-51
2024/04/10 15:17:21;;;;;;;;;;;;;;;;;;5274175;27;19939;-52
2024/04/10 15:19:48;;;;;;;;;;;;;;;;;;5276153;27;20437;-52
2024/04/10 15:22:14;;;;;;;;;;;;;;;;;;5277480;27;19931;-51
2024/04/10 15:24:42;;;;;;;;;;;;;;;;;;5247858;27;19931;-52
2024/04/10 15:27:08;;;;;;;;;;;;;;;;;;5277688;27;19935;-52
2024/04/10 15:29:34;;;;;;;;;;;;;;;;;;5276250;27;19982;-51
2024/04/10 15:32:00;;;;;;;;;;;;;;;;;;5277462;27;19931;-53
2024/04/10 15:34:26;;;;;;;;;;;;;;;;;;5276487;27;19931;-53
2024/04/10 15:36:52;;;;;;;;;;;;;;;;;;5274098;27;19942;-53
2024/04/10 15:39:17;;;;;;;;;;;;;;;;;;5258640;27;19943;-53
2024/04/10 15:41:44;;;;;;;;;;;;;;;;;;5243294;27;19939;-52
2024/04/10 15:44:09;;;;;;;;;;;;;;;;;;5273201;27;19931;-51
2024/04/10 15:46:35;;;;;;;;;;;;;;;;;;5277211;27;19942;-52
2024/04/10 15:49:01;;;;;;;;;;;;;;;;;;5277164;27;19932;-51
2024/04/10 15:51:27;;;;;;;;;;;;;;;;;;5276480;27;19935;-52
2024/04/10 15:53:53;;;;;;;;;;;;;;;;;;5276762;27;19972;-53
2024/04/10 15:56:19;;;;;;;;;;;;;;;;;;5276758;27;20002;-52
2024/04/10 15:58:45;;;;;;;;;;;;;;;;;;5276777;27;19930;-53
2024/04/10 16:01:11;;;;;;;;;;;;;;;;;;5277405;27;19931;-52
2024/04/10 16:03:36;;;;;;;;;;;;;;;;;;5277123;27;19942;-52
2024/04/10 16:06:04;;;;;;;;;;;;;;;;;;5277290;27;19935;-51
2024/04/10 16:08:30;;;;;;;;;;;;;;;;;;5276875;27;19943;-50
2024/04/10 16:10:56;;;;;;;;;;;;;;;;;;5276950;27;19935;-50
2024/04/10 16:13:23;;;;;;;;;;;;;;;;;;5274550;27;19963;-53
2024/04/10 16:15:49;;;;;;;;;;;;;;;;;;5276635;27;19967;-52
2024/04/10 16:18:17;;;;;;;;;;;;;;;;;;5275234;27;19931;-53
2024/04/10 16:20:43;;;;;;;;;;;;;;;;;;5277501;27;19938;-52
2024/04/10 16:23:08;;;;;;;;;;;;;;;;;;5276841;27;19943;-51
2024/04/10 16:25:34;;;;;;;;;;;;;;;;;;5277042;27;20006;-53
2024/04/10 16:28:00;;;;;;;;;;;;;;;;;;5276649;27;19942;-51
2024/04/10 16:30:26;;;;;;;;;;;;;;;;;;5275834;27;19938;-52
2024/04/10 16:32:52;;;;;;;;;;;;;;;;;;5246995;27;19971;-52
2024/04/10 16:35:18;;;;;;;;;;;;;;;;;;5242982;27;19939;-53
2024/04/10 16:37:44;;;;;;;;;;;;;;;;;;5243465;27;20002;-53
2024/04/10 16:40:10;;;;;;;;;;;;;;;;;;5242723;27;19931;-54
2024/04/10 16:42:36;;;;;;;;;;;;;;;;;;5275815;27;19931;-53
2024/04/10 16:45:01;;;;;;;;;;;;;;;;;;5273873;27;20357;-53
2024/04/10 16:47:29;;;;;;;;;;;;;;;;;;5269991;27;19930;-53
2024/04/10 16:49:54;;;;;;;;;;;;;;;;;;5275719;27;19931;-55
2024/04/10 16:52:21;;;;;;;;;;;;;;;;;;5275268;27;20377;-57
2024/04/10 16:54:47;;;;;;;;;;;;;;;;;;5235653;27;19943;-52
2024/04/10 16:57:12;;;;;;;;;;;;;;;;;;5275134;27;19938;-56
2024/04/10 16:59:38;;;;;;;;;;;;;;;;;;5274502;27;20005;-54
2024/04/10 17:02:04;;;;;;;;;;;;;;;;;;5275311;27;19938;-55
2024/04/10 17:04:30;;;;;;;;;;;;;;;;;;5271337;27;20332;-53
2024/04/10 17:06:56;;;;;;;;;;;;;;;;;;5274302;27;19943;-53
2024/04/10 17:09:22;;;;;;;;;;;;;;;;;;5270198;27;20389;-55
2024/04/10 17:11:48;;;;;;;;;;;;;;;;;;5272797;27;19931;-55
2024/04/10 17:14:14;;;;;;;;;;;;;;;;;;5270109;27;19931;-53
2024/04/10 17:16:39;;;;;;;;;;;;;;;;;;5269360;27;19977;-55
2024/04/10 17:21:56;;;;;;;;;;;;;;;;;;5274410;27;19980;-54
2024/04/10 17:24:22;;;;;;;;;;;;;;;;;;5272112;27;20362;-52
2024/04/10 17:26:48;;;;;;;;;;;;;;;;;;5245454;27;20002;-51
2024/04/10 17:29:14;;;;;;;;;;;;;;;;;;5270882;27;20002;-54
2024/04/10 17:31:40;;;;;;;;;;;;;;;;;;5269893;27;19943;-52
2024/04/10 17:34:07;;;;;;;;;;;;;;;;;;5272404;27;19931;-55
2024/04/10 17:36:33;;;;;;;;;;;;;;;;;;5268738;27;19942;-53
2024/04/10 17:38:59;;;;;;;;;;;;;;;;;;5243085;27;20010;-52
2024/04/10 17:41:25;;;;;;;;;;;;;;;;;;5270729;27;20377;-52
2024/04/10 17:43:51;;;;;;;;;;;;;;;;;;5274059;27;19931;-55
2024/04/10 17:46:17;;;;;;;;;;;;;;;;;;5273081;27;19957;-55
2024/04/10 17:48:43;;;;;;;;;;;;;;;;;;5235732;27;19939;-55
2024/04/10 17:51:09;;;;;;;;;;;;;;;;;;5237702;27;19932;-55
2024/04/10 17:53:35;;;;;;;;;;;;;;;;;;5268937;27;19939;-55
2024/04/10 17:56:01;;;;;;;;;;;;;;;;;;5273012;27;20097;-52
2024/04/10 17:58:26;;;;;;;;;;;;;;;;;;5272620;27;19931;-52
2024/04/10 18:00:52;;;;;;;;;;;;;;;;;;5270847;27;19959;-55
2024/04/10 18:03:20;;;;;;;;;;;;;;;;;;5234666;27;20405;-54
2024/04/10 18:05:47;;;;;;;;;;;;;;;;;;5266848;27;19939;-54
2024/04/10 18:08:13;;;;;;;;;;;;;;;;;;5266747;27;20423;-54
2024/04/10 18:12:20;;;;;;;;;;;;;;;;;;5535689;25;19923;-52
2024/04/10 18:14:47;;;;;;;;;;;;;;;;;;5509622;25;19935;-52
2024/04/10 18:17:13;;;;;;;;;;;;;;;;;;5525724;25;19934;-53
2024/04/10 18:19:38;;;;;;;;;;;;;;;;;;5511898;25;20806;-52
2024/04/10 18:22:04;;;;;;;;;;;;;;;;;;5521935;25;19942;-52
2024/04/10 18:24:30;;;;;;;;;;;;;;;;;;5500944;25;19934;-52
2024/04/10 18:26:56;;;;;;;;;;;;;;;;;;5513436;25;19936;-53
2024/04/10 18:29:22;;;;;;;;;;;;;;;;;;5517924;25;19936;-51
2024/04/10 18:31:48;;;;;;;;;;;;;;;;;;5510456;25;20361;-53
2024/04/10 18:34:15;;;;;;;;;;;;;;;;;;5524630;25;19939;-50
2024/04/10 18:36:41;;;;;;;;;;;;;;;;;;5531037;25;19927;-52
2024/04/10 18:39:07;;;;;;;;;;;;;;;;;;5525101;25;19927;-52
2024/04/10 18:41:35;;;;;;;;;;;;;;;;;;5530274;25;19999;-52
2024/04/10 18:44:01;;;;;;;;;;;;;;;;;;5509196;25;19931;-50
2024/04/10 18:46:28;;;;;;;;;;;;;;;;;;5540011;25;19934;-52
2024/04/10 18:48:54;;;;;;;;;;;;;;;;;;5516430;25;19928;-50
2024/04/10 18:51:20;;;;;;;;;;;;;;;;;;5534458;25;19995;-52
2024/04/10 18:53:46;;;;;;;;;;;;;;;;;;5539099;25;19927;-50
2024/04/10 18:56:12;;;;;;;;;;;;;;;;;;5523502;25;19956;-52
2024/04/10 18:58:39;;;;;;;;;;;;;;;;;;5503743;25;19928;-52
2024/04/10 19:01:04;;;;;;;;;;;;;;;;;;5512416;25;19954;-52
2024/04/10 19:03:30;;;;;;;;;;;;;;;;;;5531340;25;19933;-53
2024/04/10 19:05:56;;;;;;;;;;;;;;;;;;5520016;25;19944;-52
2024/04/10 19:08:22;;;;;;;;;;;;;;;;;;5519450;25;19928;-52
2024/04/10 19:10:48;;;;;;;;;;;;;;;;;;5524010;25;19927;-51
2024/04/10 19:13:14;;;;;;;;;;;;;;;;;;5518809;25;20246;-50
2024/04/10 19:15:40;;;;;;;;;;;;;;;;;;5502773;25;20257;-51
2024/04/10 19:18:07;;;;;;;;;;;;;;;;;;5503609;25;20384;-53
2024/04/10 19:20:33;;;;;;;;;;;;;;;;;;5513765;25;19934;-51
2024/04/10 19:22:59;;;;;;;;;;;;;;;;;;5515272;25;19927;-49
2024/04/10 19:25:25;;;;;;;;;;;;;;;;;;5514475;26;20016;-52
2024/04/10 19:27:51;;;;;;;;;;;;;;;;;;5511677;25;19934;-52
2024/04/10 19:30:17;;;;;;;;;;;;;;;;;;5516299;26;19931;-51
2024/04/10 19:32:42;;;;;;;;;;;;;;;;;;5503924;26;19936;-52
2024/04/10 19:35:08;;;;;;;;;;;;;;;;;;5512652;26;19928;-52
2024/04/10 19:37:36;;;;;;;;;;;;;;;;;;5488756;26;19928;-50
2024/04/10 19:40:05;;;;;;;;;;;;;;;;;;5502123;26;19927;-52
2024/04/10 19:42:31;;;;;;;;;;;;;;;;;;5504206;26;20029;-52
2024/04/10 19:44:57;;;;;;;;;;;;;;;;;;5516824;26;21839;-51
2024/04/10 19:47:22;;;;;;;;;;;;;;;;;;5508008;25;20393;-51
2024/04/10 19:49:48;;;;;;;;;;;;;;;;;;5496916;26;19927;-52
2024/04/10 19:52:14;;;;;;;;;;;;;;;;;;5510087;26;20372;-53
2024/04/10 19:54:40;;;;;;;;;;;;;;;;;;5512649;25;19935;-52
2024/04/10 19:57:08;;;;;;;;;;;;;;;;;;5489932;26;19935;-53
2024/04/10 19:59:34;;;;;;;;;;;;;;;;;;5510120;25;19927;-52
2024/04/10 20:02:00;;;;;;;;;;;;;;;;;;5517897;26;20356;-52
2024/04/10 20:04:26;;;;;;;;;;;;;;;;;;5510493;26;19938;-53
2024/04/10 20:06:51;;;;;;;;;;;;;;;;;;5513715;25;19935;-52
2024/04/10 20:09:17;;;;;;;;;;;;;;;;;;5510156;25;19927;-51
2024/04/10 20:11:43;;;;;;;;;;;;;;;;;;5516665;25;19938;-52
2024/04/10 20:14:09;;;;;;;;;;;;;;;;;;5512357;25;19934;-52
2024/04/10 20:16:35;;;;;;;;;;;;;;;;;;5486852;26;19932;-52
2024/04/10 20:19:01;;;;;;;;;;;;;;;;;;5495136;26;19936;-52
2024/04/10 20:21:27;;;;;;;;;;;;;;;;;;5499264;26;20487;-52
2024/04/10 20:23:53;;;;;;;;;;;;;;;;;;5498433;26;19928;-53
2024/04/10 20:26:19;;;;;;;;;;;;;;;;;;5518831;26;20455;-52
2024/04/10 20:28:44;;;;;;;;;;;;;;;;;;5502061;26;19928;-52
2024/04/10 20:31:10;;;;;;;;;;;;;;;;;;5480763;26;19928;-52
2024/04/10 20:33:36;;;;;;;;;;;;;;;;;;5490538;26;19928;-52
2024/04/10 20:36:02;;;;;;;;;;;;;;;;;;5488192;26;19971;-52
2024/04/10 20:38:28;;;;;;;;;;;;;;;;;;5511713;25;20496;-52
2024/04/10 20:40:54;;;;;;;;;;;;;;;;;;5511093;26;19938;-52
2024/04/10 20:43:21;;;;;;;;;;;;;;;;;;5484019;26;19932;-51
2024/04/10 20:45:47;;;;;;;;;;;;;;;;;;5487241;26;19935;-52
2024/04/10 20:48:12;;;;;;;;;;;;;;;;;;5505352;26;19956;-52
2024/04/10 20:50:38;;;;;;;;;;;;;;;;;;5506320;26;19935;-49
2024/04/10 20:53:04;;;;;;;;;;;;;;;;;;5498844;26;20254;-51
2024/04/10 20:55:30;;;;;;;;;;;;;;;;;;5494394;26;19936;-50
2024/04/10 20:57:56;;;;;;;;;;;;;;;;;;5513551;25;19934;-53
2024/04/10 21:00:22;;;;;;;;;;;;;;;;;;5495267;25;19994;-51
2024/04/10 21:02:48;;;;;;;;;;;;;;;;;;5505865;26;19995;-53
2024/04/10 21:05:14;;;;;;;;;;;;;;;;;;5504060;26;19934;-53
2024/04/10 22:10:48;;;;;;;;;;;;;;;;;;5449273;26;20415;-49
2024/04/10 22:13:14;;;;;;;;;;;;;;;;;;5449658;26;19940;-51
2024/04/10 22:15:40;;;;;;;;;;;;;;;;;;5448871;26;19929;-51
2024/04/10 22:26:22;;;;;;;;;;;;;;;;;;5448800;26;20044;-52
2024/04/10 22:28:48;;;;;;;;;;;;;;;;;;5449293;26;19961;-51
2024/04/10 22:31:14;;;;;;;;;;;;;;;;;;5449471;26;20079;-52
2024/04/10 22:33:40;;;;;;;;;;;;;;;;;;5449276;26;19935;-51
2024/04/10 22:36:06;;;;;;;;;;;;;;;;;;5448787;26;19929;-50
2024/04/10 22:38:32;;;;;;;;;;;;;;;;;;5448531;26;19941;-52
2024/04/10 22:40:58;;;;;;;;;;;;;;;;;;5448679;26;19928;-51
2024/04/10 22:43:23;;;;;;;;;;;;;;;;;;5448795;26;19956;-50
2024/04/10 22:45:49;;;;;;;;;;;;;;;;;;5448799;26;20304;-52
2024/04/10 22:48:15;;;;;;;;;;;;;;;;;;5449300;26;19936;-50
2024/04/10 22:50:41;;;;;;;;;;;;;;;;;;5448544;26;20001;-51
2024/04/10 22:53:07;;;;;;;;;;;;;;;;;;5448836;26;19933;-50
2024/04/10 22:55:33;;;;;;;;;;;;;;;;;;5448325;26;19940;-51
2024/04/10 22:57:59;;;;;;;;;;;;;;;;;;5450403;26;19928;-47
